VVNBVLVT

Guest
Details From VVNB - Hanoi Noibai Intl
To VLVT - Wattay Intl
Flight Number -
Tags Generated
Created
Modified
Stats Distance 267 nm / 494 km
Max Altitude 0 ft / 0 m
Waypoints 3
Social Downloads 0
Likes 0
Share VATSIM

Download

Looking for another format? Having issues loading an existing format? Contact us
Advertisement - Login to hide

Notes

Generated

Route

VVNB VTG VLVT

ID Type Via Altitude Latitude Longitude Leg Dist Tot Dist Heading (true) Name
O VVNB APT - 0 ft / 0 m 21.22489˚ 105.78623˚ - 0 nm - -
VTG NDB - 0 ft / 0 m 18.13806˚ 102.63333˚ 257 nm 257 nm 224° / 223° THANGONE NDB
O VLVT APT - 0 ft / 0 m 17.99781˚ 102.55332˚ 9 nm 266 nm 208° / 208° -

Altitude Profile

Advertisement - Login to hide

Weather


0- 5 10 15 20 25 30 35+ Temperature / ° C

Clouds and Precipitation
Forecast for 2017-12-13 00:00 UTC. Updated 32 minutes ago

Ground ~20,000 ft ~40,000 ft Winds

VVNB

Details ICAO VVNB (HAN)
Name Hanoi Noibai Intl
Region Vietnam
Timezone Asia/Ho_Chi_Minh (UTC+7.0)
Stats Elevation 39 ft / 12 m (AMSL)
Location 21.219739° 105.803774°
Runways 2
Magnetic Variation 1.479° W

METAR

VVNB 122330Z 05004KT 020V080 5000 -DZ BR SCT004 BKN015 15/14 Q1016 NOSIG

Decode

TAF

TAF VVNB 121700Z 1218/1318 07005KT 2500 -DZ BR SCT004 BKN015 BECMG 1220/1221 1400 DZ BR TEMPO 1223/1303 0800 DZ FG BECMG 1304/1305 3000 -DZ BR

Decode

Departure Runways

ID Width Length Bearing (true) Bearing (mag) Surface Threshold Offset Overrun Length
11L 148 ft / 45 m 12,454 ft / 3,796 m 107.24° 108.72° Concrete 0 ft / 0 m 0 ft / 0 m
11R 148 ft / 45 m 12,456 ft / 3,797 m 107.22° 108.70° Concrete 0 ft / 0 m 325 ft / 99 m
29L 148 ft / 45 m 12,456 ft / 3,797 m 287.23° 288.71° Concrete 0 ft / 0 m 325 ft / 99 m
29R 148 ft / 45 m 12,454 ft / 3,796 m 287.25° 288.73° Concrete 0 ft / 0 m 868 ft / 265 m

VLVT

Details ICAO VLVT (VTE)
Name Vientiane Wattay
Region Laos
Timezone Asia/Vientiane (UTC+7.0)
Stats Elevation 1,850 ft / 564 m (AMSL)
Location 17.988343° 102.563222°
Runways 1
Magnetic Variation 0.899° W

METAR

VLVT 122330Z 32004KT 4000 BR OVC050 21/21 Q1013 NOSIG

Decode

TAF

TAF TAF VLVT 121700Z 1218/1318 09006KT 7000 FEW020 BKN050 TEMPO 1218/1222 4000 BR BKN050

Decode

Destination Runways

ID Width Length Bearing (true) Bearing (mag) Surface Threshold Offset Overrun Length
13 148 ft / 45 m 9,862 ft / 3,006 m 135.42° 136.32° Asphalt 0 ft / 0 m 0 ft / 0 m
31 148 ft / 45 m 9,862 ft / 3,006 m 315.42° 316.32° Asphalt 0 ft / 0 m 0 ft / 0 m

Approach Navaids

Runway Type Ident Frequency Range Bearing (true) Bearing (mag) Slope Elevation
13 Localiser IVTN 109.90 MHz 18 nm / 33 km 135.43° 136.33° - 553 ft / 169 m (AMSL)
13 Glidescope IVTN 109.90 MHz 10 nm / 19 km 136.00° 136.90° 3.00° 550 ft / 168 m (AMSL)
13 DME IVTN 109.90 MHz 18 nm / 33 km - - - 550 ft / 168 m (AMSL)

Popular Alternatives